Time;durP1;ratioP1;P1;durP2;ratioP2;P2;SDS_P1;SDS_P2;PMS_P1;PMS_P2;Temp;Humidity;BMP_temperature;BMP_pressure;BME280_temperature;BME280_humidity;BME280_pressure;Samples;Min_cycle;Max_cycle;Signal;HPM_P1;HPM_P2
2021/04/07 00:00:12;;;;;;;1.00;0.90;;;23.60;54.10;;;;;;5155099;27;20513;-84
2021/04/07 00:02:38;;;;;;;1.30;0.80;;;23.60;54.10;;;;;;5154914;27;20450;-85
2021/04/07 00:05:08;;;;;;;1.00;0.80;;;23.60;54.10;;;;;;5155023;27;20940;-84
2021/04/07 00:07:34;;;;;;;1.10;0.90;;;23.70;54.10;;;;;;5154888;27;20476;-84
2021/04/07 00:10:02;;;;;;;1.00;0.70;;;23.70;54.10;;;;;;5155157;27;20467;-85
2021/04/07 00:12:28;;;;;;;1.20;1.00;;;23.60;54.10;;;;;;5155228;27;20590;-84
2021/04/07 00:14:55;;;;;;;1.50;1.00;;;23.70;54.10;;;;;;5154948;27;20442;-84
2021/04/07 00:17:21;;;;;;;1.03;0.80;;;23.70;54.10;;;;;;5156482;27;20441;-84
2021/04/07 00:19:48;;;;;;;1.20;1.00;;;23.60;54.50;;;;;;5159109;27;20797;-84
2021/04/07 00:22:14;;;;;;;1.10;0.80;;;23.60;53.90;;;;;;5159171;27;20448;-84
2021/04/07 00:24:40;;;;;;;1.00;0.80;;;23.60;54.00;;;;;;5159035;27;20859;-85
2021/04/07 00:27:10;;;;;;;1.00;0.70;;;23.60;53.90;;;;;;5159052;27;20557;-84
2021/04/07 00:29:36;;;;;;;1.00;0.70;;;23.60;53.90;;;;;;5159089;27;20442;-84
2021/04/07 00:32:04;;;;;;;1.17;0.80;;;23.60;53.90;;;;;;5159194;27;20494;-83
2021/04/07 00:34:32;;;;;;;1.00;0.70;;;23.60;53.80;;;;;;5159009;27;20437;-84
2021/04/07 00:36:58;;;;;;;1.00;0.80;;;23.70;54.00;;;;;;5158987;27;20488;-83
2021/04/07 00:39:25;;;;;;;1.00;0.70;;;23.60;53.90;;;;;;5158673;27;20513;-83
2021/04/07 00:41:51;;;;;;;1.53;0.80;;;23.60;53.90;;;;;;5158997;27;20451;-84
2021/04/07 00:44:17;;;;;;;1.10;0.80;;;23.70;54.00;;;;;;5158433;27;20466;-84
2021/04/07 00:46:43;;;;;;;1.00;0.70;;;23.60;53.90;;;;;;5158687;27;20457;-83
2021/04/07 00:49:11;;;;;;;1.20;0.80;;;23.60;53.90;;;;;;5158639;27;20437;-84
2021/04/07 00:51:45;;;;;;;0.90;0.80;;;23.60;53.90;;;;;;5158423;27;20476;-84
2021/04/07 00:54:11;;;;;;;1.03;0.80;;;23.60;53.90;;;;;;5158474;27;20488;-84
2021/04/07 00:56:38;;;;;;;0.90;0.70;;;23.60;53.80;;;;;;5158441;27;20535;-84
2021/04/07 00:59:05;;;;;;;0.90;0.70;;;23.60;53.80;;;;;;5158496;27;20437;-84
2021/04/07 01:01:32;;;;;;;1.10;0.70;;;23.60;53.90;;;;;;5158305;27;20439;-84
2021/04/07 01:03:59;;;;;;;1.20;0.70;;;23.60;53.80;;;;;;5158359;27;20930;-84
2021/04/07 01:06:27;;;;;;;1.30;0.80;;;23.80;54.00;;;;;;5158179;27;20437;-84
2021/04/07 01:08:53;;;;;;;1.10;0.83;;;23.60;53.80;;;;;;5158048;27;20477;-84
2021/04/07 01:11:19;;;;;;;1.20;0.90;;;23.60;53.80;;;;;;5158281;27;20441;-83
2021/04/07 01:13:45;;;;;;;1.10;0.80;;;23.60;53.80;;;;;;5157954;27;20498;-84
2021/04/07 01:16:12;;;;;;;1.10;0.80;;;23.60;53.80;;;;;;5158272;27;20440;-84
2021/04/07 01:18:39;;;;;;;1.10;0.90;;;23.60;53.70;;;;;;5158304;27;20949;-84
2021/04/07 01:21:06;;;;;;;0.93;0.67;;;23.60;53.70;;;;;;5158145;27;20438;-84
2021/04/07 01:23:35;;;;;;;1.00;0.70;;;23.60;53.80;;;;;;5157702;27;20443;-84
2021/04/07 01:26:02;;;;;;;1.00;0.80;;;23.60;53.80;;;;;;5157799;27;20472;-84
2021/04/07 01:28:29;;;;;;;1.00;0.77;;;23.60;53.70;;;;;;5157160;27;20488;-83
2021/04/07 01:30:55;;;;;;;1.00;0.70;;;23.60;53.70;;;;;;5157665;27;20442;-84
2021/04/07 01:33:24;;;;;;;1.10;0.77;;;23.80;53.90;;;;;;5157555;27;20928;-83
2021/04/07 01:35:53;;;;;;;1.20;1.00;;;23.70;53.80;;;;;;5157704;27;20565;-83
2021/04/07 01:38:19;;;;;;;1.00;0.70;;;23.60;53.70;;;;;;5157729;27;20456;-84
2021/04/07 01:40:46;;;;;;;1.07;0.70;;;23.60;53.70;;;;;;5157463;27;20502;-84
2021/04/07 01:43:16;;;;;;;1.20;0.80;;;23.60;53.70;;;;;;5157085;27;20473;-84
2021/04/07 01:45:44;;;;;;;1.03;0.80;;;23.60;53.70;;;;;;5157081;27;20433;-84
2021/04/07 01:48:11;;;;;;;1.00;0.80;;;23.60;53.70;;;;;;5157111;27;20486;-84
2021/04/07 01:50:39;;;;;;;1.00;0.70;;;23.60;53.70;;;;;;5157207;27;20791;-84
2021/04/07 01:53:06;;;;;;;1.00;0.80;;;23.60;53.70;;;;;;5157217;27;20429;-84
2021/04/07 01:55:32;;;;;;;1.00;0.70;;;23.60;53.70;;;;;;5157151;27;20959;-84
2021/04/07 01:57:58;;;;;;;1.30;0.73;;;23.60;53.70;;;;;;5157257;27;20431;-85
2021/04/07 02:00:26;;;;;;;1.00;0.67;;;23.80;53.80;;;;;;5157144;27;20442;-84
2021/04/07 02:02:53;;;;;;;1.03;0.93;;;23.80;53.80;;;;;;5157286;27;20529;-84
2021/04/07 02:05:19;;;;;;;1.10;0.90;;;23.60;53.70;;;;;;5157020;27;20461;-84
2021/04/07 02:07:45;;;;;;;1.20;0.90;;;23.60;53.60;;;;;;5157211;27;20479;-84
2021/04/07 02:10:13;;;;;;;1.00;0.70;;;23.80;54.40;;;;;;5157036;27;20463;-85
2021/04/07 02:12:39;;;;;;;1.20;1.00;;;23.60;53.60;;;;;;5156948;27;20929;-84
2021/04/07 02:15:11;;;;;;;1.20;0.90;;;23.60;53.60;;;;;;5157028;27;20442;-84
2021/04/07 02:17:38;;;;;;;1.30;0.70;;;23.60;53.60;;;;;;5157041;27;20433;-84
2021/04/07 02:20:07;;;;;;;1.00;0.80;;;23.60;53.70;;;;;;5156848;27;20441;-84
2021/04/07 02:22:34;;;;;;;1.10;0.90;;;23.60;53.60;;;;;;5156785;27;20955;-84
2021/04/07 02:25:00;;;;;;;1.10;1.00;;;23.60;53.90;;;;;;5156459;27;20452;-84
2021/04/07 02:27:27;;;;;;;1.00;0.73;;;23.60;53.60;;;;;;5156392;27;20481;-84
2021/04/07 02:29:55;;;;;;;1.00;0.80;;;23.60;53.50;;;;;;5156845;27;20534;-84
2021/04/07 02:32:23;;;;;;;1.10;0.70;;;23.60;53.50;;;;;;5156732;27;20430;-84
2021/04/07 02:34:51;;;;;;;1.30;1.20;;;23.80;53.70;;;;;;5156503;27;20442;-84
2021/04/07 02:37:18;;;;;;;1.20;0.80;;;23.60;53.70;;;;;;5156571;27;20444;-84
2021/04/07 02:39:46;;;;;;;1.00;0.80;;;23.60;53.60;;;;;;5156351;27;20450;-84
2021/04/07 02:42:13;;;;;;;1.40;0.70;;;23.60;53.50;;;;;;5156433;27;20439;-84
2021/04/07 02:44:40;;;;;;;1.00;0.90;;;23.60;53.50;;;;;;5156202;27;20475;-84
2021/04/07 02:47:06;;;;;;;1.10;0.80;;;23.60;53.50;;;;;;5156308;27;20443;-83
2021/04/07 02:49:33;;;;;;;1.00;0.73;;;23.60;53.50;;;;;;5155973;27;20448;-84
2021/04/07 02:52:00;;;;;;;0.90;0.70;;;23.60;53.40;;;;;;5156140;27;20445;-84
2021/04/07 02:54:27;;;;;;;1.33;0.97;;;23.60;53.50;;;;;;5156101;27;20830;-83
2021/04/07 02:56:53;;;;;;;1.20;0.80;;;23.60;53.40;;;;;;5156082;27;20435;-84
2021/04/07 02:59:19;;;;;;;1.00;0.70;;;23.60;53.50;;;;;;5156675;27;20438;-83
2021/04/07 03:01:46;;;;;;;1.57;0.80;;;23.60;53.40;;;;;;5156028;27;20484;-84
2021/04/07 03:04:13;;;;;;;1.10;0.80;;;23.60;54.00;;;;;;5155887;27;20840;-84
2021/04/07 03:06:39;;;;;;;1.00;0.90;;;23.60;53.40;;;;;;5156235;27;20446;-83
2021/04/07 03:09:06;;;;;;;1.37;0.90;;;23.60;53.40;;;;;;5155651;27;20903;-83
2021/04/07 03:11:34;;;;;;;1.20;0.80;;;23.60;53.40;;;;;;5155682;27;20451;-83
2021/04/07 03:14:00;;;;;;;1.10;0.90;;;23.60;53.40;;;;;;5155830;27;20441;-84
2021/04/07 03:16:26;;;;;;;1.03;0.87;;;23.60;53.40;;;;;;5155731;27;20482;-83
2021/04/07 03:18:53;;;;;;;1.40;0.90;;;23.60;53.40;;;;;;5155752;27;20440;-84
2021/04/07 03:21:19;;;;;;;1.03;0.90;;;23.60;53.40;;;;;;5155529;27;20434;-84
2021/04/07 03:23:45;;;;;;;1.30;1.00;;;23.70;53.50;;;;;;5155708;27;20793;-83
2021/04/07 03:26:13;;;;;;;1.10;0.90;;;23.60;53.40;;;;;;5155585;27;20525;-83
2021/04/07 03:28:39;;;;;;;1.10;0.97;;;23.60;53.40;;;;;;5155513;27;20484;-84
2021/04/07 03:31:05;;;;;;;1.00;0.80;;;23.60;54.00;;;;;;5155614;27;20438;-84
2021/04/07 03:33:34;;;;;;;1.07;0.83;;;23.60;53.40;;;;;;5155524;27;20443;-84
2021/04/07 03:36:02;;;;;;;1.10;0.90;;;23.40;53.20;;;;;;5155475;27;20446;-84
2021/04/07 03:38:29;;;;;;;1.00;0.90;;;23.60;53.40;;;;;;5155303;27;20460;-83
2021/04/07 03:40:55;;;;;;;1.20;0.97;;;23.60;53.40;;;;;;5155269;27;20938;-84
2021/04/07 03:43:24;;;;;;;1.33;1.00;;;23.70;53.50;;;;;;5154942;27;20564;-84
2021/04/07 03:45:52;;;;;;;1.20;0.90;;;23.60;53.40;;;;;;5155191;27;20442;-84
2021/04/07 03:48:19;;;;;;;1.20;0.90;;;23.60;53.40;;;;;;5155025;27;20481;-84
2021/04/07 03:50:47;;;;;;;1.00;0.73;;;23.60;53.40;;;;;;5154796;27;20792;-85
2021/04/07 03:53:14;;;;;;;1.40;1.30;;;23.60;53.40;;;;;;5154507;27;20501;-84
2021/04/07 03:55:41;;;;;;;1.13;1.00;;;23.60;53.40;;;;;;5154756;27;20440;-84
2021/04/07 03:58:07;;;;;;;1.10;1.00;;;23.60;53.40;;;;;;5154686;27;20475;-84
2021/04/07 04:00:35;;;;;;;1.60;1.13;;;23.60;53.40;;;;;;5154616;27;20435;-84
2021/04/07 04:03:01;;;;;;;1.30;1.00;;;23.60;53.40;;;;;;5154793;27;20433;-84
2021/04/07 04:05:28;;;;;;;1.10;1.00;;;23.60;53.40;;;;;;5154625;27;20450;-84
2021/04/07 04:07:54;;;;;;;1.23;1.10;;;23.50;53.30;;;;;;5154612;27;20541;-84
2021/04/07 04:10:21;;;;;;;1.30;1.20;;;23.50;53.30;;;;;;5154819;27;20793;-84
2021/04/07 04:12:48;;;;;;;1.30;1.20;;;23.50;53.30;;;;;;5154715;27;20471;-84
2021/04/07 04:15:15;;;;;;;1.20;1.03;;;23.50;53.30;;;;;;5154712;27;20438;-84
2021/04/07 04:17:43;;;;;;;1.30;1.20;;;23.60;53.40;;;;;;5154779;27;20443;-84
2021/04/07 04:20:11;;;;;;;1.20;1.10;;;23.50;53.30;;;;;;5154582;27;20489;-83
2021/04/07 04:22:38;;;;;;;1.23;1.13;;;23.60;53.40;;;;;;5155021;27;20954;-84
2021/04/07 04:25:05;;;;;;;1.10;1.00;;;23.60;53.30;;;;;;5154812;27;20441;-84
2021/04/07 04:27:31;;;;;;;1.30;1.07;;;23.60;53.30;;;;;;5154954;27;20474;-84
2021/04/07 04:29:57;;;;;;;1.70;1.10;;;23.60;53.30;;;;;;5155054;27;20435;-84
2021/04/07 04:32:24;;;;;;;1.13;1.03;;;23.60;53.30;;;;;;5154860;27;20470;-84
2021/04/07 04:34:51;;;;;;;1.30;1.20;;;23.50;53.30;;;;;;5155077;27;20502;-84
2021/04/07 04:37:17;;;;;;;1.20;1.03;;;23.60;53.30;;;;;;5154923;27;20535;-84
2021/04/07 04:39:44;;;;;;;1.20;1.00;;;23.50;53.20;;;;;;5154835;27;20438;-84
2021/04/07 04:42:10;;;;;;;1.40;1.20;;;23.50;53.30;;;;;;5154662;27;20991;-84
2021/04/07 04:44:36;;;;;;;1.17;1.07;;;23.60;53.30;;;;;;5154558;27;20471;-83
2021/04/07 04:47:03;;;;;;;1.20;1.10;;;23.50;53.30;;;;;;5154922;27;20440;-84
2021/04/07 04:49:29;;;;;;;2.07;1.33;;;23.70;53.40;;;;;;5154835;27;20932;-83
2021/04/07 04:51:56;;;;;;;1.43;1.10;;;23.50;53.20;;;;;;5154977;27;20440;-83
2021/04/07 04:54:22;;;;;;;1.47;1.23;;;23.50;53.20;;;;;;5154507;27;20440;-84
2021/04/07 04:56:49;;;;;;;1.20;1.10;;;23.50;53.80;;;;;;5154686;27;20485;-83
2021/04/07 04:59:15;;;;;;;1.10;1.00;;;23.60;53.30;;;;;;5154617;27;20497;-83
2021/04/07 05:01:41;;;;;;;1.63;1.20;;;23.50;53.30;;;;;;5154573;27;20791;-83
2021/04/07 05:04:07;;;;;;;1.30;1.13;;;23.50;53.20;;;;;;5155775;27;20435;-83
2021/04/07 05:06:34;;;;;;;1.30;1.20;;;23.50;53.20;;;;;;5158379;27;20460;-83
2021/04/07 05:09:01;;;;;;;1.30;1.20;;;23.70;53.40;;;;;;5158119;27;20493;-83
2021/04/07 05:11:27;;;;;;;1.83;1.60;;;23.50;53.30;;;;;;5158399;27;20434;-83
2021/04/07 05:13:54;;;;;;;1.40;1.30;;;23.50;53.20;;;;;;5158060;27;20933;-83
2021/04/07 05:16:20;;;;;;;1.13;1.00;;;23.50;53.20;;;;;;5158392;27;20525;-83
2021/04/07 05:18:46;;;;;;;1.30;1.20;;;23.50;53.30;;;;;;5158374;27;20439;-84
2021/04/07 05:21:13;;;;;;;1.23;1.13;;;23.70;53.40;;;;;;5158155;27;20442;-83
2021/04/07 05:23:39;;;;;;;1.27;1.17;;;23.50;53.20;;;;;;5158548;27;20437;-83
2021/04/07 05:26:06;;;;;;;1.20;1.07;;;23.50;53.20;;;;;;5160031;27;20910;-83
2021/04/07 05:28:34;;;;;;;1.20;1.10;;;23.50;53.20;;;;;;5159076;27;20826;-83
2021/04/07 05:31:01;;;;;;;1.33;1.23;;;23.50;53.20;;;;;;5157893;27;20465;-83
2021/04/07 05:33:29;;;;;;;1.23;1.13;;;23.60;53.40;;;;;;5158094;27;20458;-83
2021/04/07 05:35:57;;;;;;;1.27;1.10;;;23.50;53.30;;;;;;5158713;27;20448;-83
2021/04/07 05:38:23;;;;;;;1.23;1.13;;;23.50;53.20;;;;;;5158032;27;20490;-83
2021/04/07 05:40:51;;;;;;;1.23;1.13;;;23.50;53.20;;;;;;5157819;27;20436;-83
2021/04/07 05:43:18;;;;;;;1.30;1.20;;;23.50;53.20;;;;;;5157521;27;20467;-83
2021/04/07 05:45:44;;;;;;;1.23;1.13;;;23.70;53.30;;;;;;5157681;27;20455;-83
2021/04/07 05:48:11;;;;;;;1.20;1.03;;;23.50;53.20;;;;;;5157321;27;20529;-83
2021/04/07 05:50:38;;;;;;;1.83;1.50;;;23.50;53.20;;;;;;5157566;27;20433;-83
2021/04/07 05:53:05;;;;;;;1.40;1.30;;;23.50;53.80;;;;;;5157648;27;20433;-83
2021/04/07 05:55:32;;;;;;;1.63;1.17;;;23.50;53.20;;;;;;5157528;27;20430;-82
2021/04/07 05:57:59;;;;;;;1.10;1.00;;;23.50;53.20;;;;;;5157622;27;20804;-84
2021/04/07 06:00:27;;;;;;;1.37;1.27;;;23.50;53.20;;;;;;5157265;27;20476;-83
2021/04/07 06:02:54;;;;;;;1.10;1.00;;;23.50;53.10;;;;;;5157312;27;20454;-83
2021/04/07 06:05:22;;;;;;;1.30;1.20;;;23.50;53.10;;;;;;5157748;27;20463;-83
2021/04/07 06:07:48;;;;;;;1.60;1.10;;;23.50;53.00;;;;;;5158018;27;20981;-83
2021/04/07 06:10:15;;;;;;;1.23;1.00;;;23.60;53.20;;;;;;5157659;27;20528;-83
2021/04/07 06:12:41;;;;;;;1.60;1.10;;;23.60;53.20;;;;;;5157391;27;20778;-83
2021/04/07 06:15:09;;;;;;;1.20;1.10;;;23.60;53.30;;;;;;5157396;27;20439;-83
2021/04/07 06:17:38;;;;;;;1.37;1.27;;;23.60;53.20;;;;;;5159950;27;20431;-82
2021/04/07 06:20:06;;;;;;;1.20;1.10;;;23.70;53.40;;;;;;5157212;27;20533;-81
2021/04/07 06:22:33;;;;;;;1.20;1.10;;;23.50;53.20;;;;;;5160070;27;20502;-82
2021/04/07 06:25:06;;;;;;;1.20;1.10;;;23.60;53.40;;;;;;5158246;27;20443;-82
2021/04/07 06:27:32;;;;;;;1.20;1.10;;;23.60;53.90;;;;;;5158271;27;20499;-82
2021/04/07 06:30:00;;;;;;;1.30;1.20;;;23.50;53.30;;;;;;5157337;27;20450;-82
2021/04/07 06:32:26;;;;;;;1.40;1.30;;;23.60;53.30;;;;;;5157716;27;20467;-82
2021/04/07 06:35:02;;;;;;;1.27;1.17;;;23.50;53.30;;;;;;5156581;27;20925;-82
2021/04/07 06:37:28;;;;;;;1.30;1.20;;;23.50;53.30;;;;;;5157196;27;20444;-82
2021/04/07 06:39:55;;;;;;;2.27;1.13;;;23.50;53.30;;;;;;5156889;27;20499;-82
2021/04/07 06:42:21;;;;;;;1.50;1.10;;;23.50;53.30;;;;;;5156818;27;20438;-82
2021/04/07 06:44:47;;;;;;;3.23;1.47;;;23.60;53.40;;;;;;5156897;27;20473;-82
2021/04/07 06:47:13;;;;;;;1.77;1.67;;;23.60;53.40;;;;;;5156161;27;20528;-82
2021/04/07 06:49:42;;;;;;;2.53;1.83;;;23.60;53.60;;;;;;5156685;27;20486;-82
2021/04/07 06:52:16;;;;;;;3.33;2.37;;;23.60;53.70;;;;;;5156770;27;20445;-82
2021/04/07 06:54:45;;;;;;;2.30;2.13;;;23.60;53.80;;;;;;5156522;27;20435;-82
2021/04/07 06:57:12;;;;;;;1.90;1.80;;;23.60;54.00;;;;;;5156583;27;20578;-82
2021/04/07 06:59:38;;;;;;;1.73;1.63;;;23.60;54.10;;;;;;5156264;27;20432;-86
2021/04/07 07:02:05;;;;;;;3.20;1.90;;;23.60;54.20;;;;;;5156393;27;20466;-87
2021/04/07 07:04:31;;;;;;;2.13;2.03;;;23.60;54.60;;;;;;5150751;27;20510;-83
2021/04/07 07:07:00;;;;;;;2.43;2.00;;;23.60;54.20;;;;;;5135162;27;20472;-82
2021/04/07 07:09:27;;;;;;;1.77;1.67;;;23.60;54.20;;;;;;5135009;27;20490;-82
2021/04/07 07:11:53;;;;;;;2.20;2.00;;;23.70;54.20;;;;;;5135116;27;20472;-82
2021/04/07 07:14:20;;;;;;;2.47;2.27;;;23.70;54.20;;;;;;5136319;27;20495;-83
2021/04/07 07:16:48;;;;;;;2.90;2.13;;;23.70;54.30;;;;;;5135035;27;20436;-84
2021/04/07 07:19:35;;;;;;;;;;;;;;;;;;;;;
2021/04/07 07:22:06;;;;;;;2.77;2.33;;;23.70;54.10;;;;;;5134450;27;20439;-79
2021/04/07 07:24:35;;;;;;;2.90;1.83;;;23.60;54.10;;;;;;5134677;27;20444;-79
2021/04/07 07:27:04;;;;;;;2.17;1.77;;;23.70;54.20;;;;;;5134096;27;20438;-79
2021/04/07 07:29:31;;;;;;;2.43;2.00;;;23.70;54.40;;;;;;5134666;27;20825;-78
2021/04/07 07:31:59;;;;;;;2.50;2.30;;;23.70;54.40;;;;;;5136121;27;20879;-80
2021/04/07 07:34:26;;;;;;;3.97;1.80;;;23.70;54.40;;;;;;5134616;27;20440;-79
2021/04/07 07:36:53;;;;;;;1.80;1.70;;;23.80;54.50;;;;;;5134761;27;20452;-79
2021/04/07 07:39:27;;;;;;;3.60;2.23;;;23.70;54.40;;;;;;5134496;27;20444;-79
2021/04/07 07:41:58;;;;;;;2.00;1.90;;;23.70;54.50;;;;;;5134683;27;20444;-79
2021/04/07 07:44:25;;;;;;;3.20;2.27;;;23.70;54.50;;;;;;5134516;27;20479;-80
2021/04/07 07:46:57;;;;;;;2.83;1.73;;;23.70;55.10;;;;;;5134815;27;20462;-79
2021/04/07 07:49:24;;;;;;;2.23;2.03;;;23.60;54.40;;;;;;5134459;27;20478;-80
2021/04/07 07:51:51;;;;;;;2.40;1.90;;;23.70;54.50;;;;;;5134300;27;20496;-79
2021/04/07 07:54:19;;;;;;;2.17;1.77;;;23.70;54.50;;;;;;5134233;27;20440;-80
2021/04/07 07:56:46;;;;;;;1.67;1.43;;;23.70;53.80;;;;;;5134474;27;20431;-82
2021/04/07 07:59:24;;;;;;;2.47;1.50;;;23.70;51.40;;;;;;5134887;27;20843;-83
2021/04/07 08:01:51;;;;;;;2.53;1.57;;;23.60;53.00;;;;;;5134619;28;20482;-82
2021/04/07 08:04:17;;;;;;;2.33;2.13;;;23.60;53.60;;;;;;5134298;27;20436;-80
2021/04/07 08:06:46;;;;;;;1.93;1.80;;;23.50;49.90;;;;;;5133966;28;20524;-80
2021/04/07 08:09:12;;;;;;;4.03;1.80;;;23.20;49.20;;;;;;5134081;28;20513;-80
2021/04/07 08:11:43;;;;;;;3.00;2.00;;;23.10;50.20;;;;;;5134256;28;20434;-81
2021/04/07 08:14:14;;;;;;;3.43;1.73;;;23.20;51.60;;;;;;5134409;28;20435;-80
2021/04/07 08:16:41;;;;;;;1.90;1.50;;;23.10;52.30;;;;;;5134302;28;20551;-83
2021/04/07 08:19:08;;;;;;;1.80;1.50;;;23.10;52.50;;;;;;5134311;28;20440;-82
2021/04/07 08:21:35;;;;;;;2.63;1.67;;;23.20;52.70;;;;;;5134422;28;20440;-82
2021/04/07 08:24:03;;;;;;;1.97;1.87;;;23.20;52.70;;;;;;5133921;27;20525;-83
2021/04/07 08:26:36;;;;;;;2.33;1.40;;;23.30;52.70;;;;;;5134208;28;20530;-82
2021/04/07 08:29:05;;;;;;;2.60;1.77;;;23.30;52.80;;;;;;5134195;28;20482;-82
2021/04/07 08:31:33;;;;;;;2.03;1.63;;;23.40;53.00;;;;;;5134151;28;20457;-82
2021/04/07 08:34:02;;;;;;;4.00;1.83;;;23.40;52.90;;;;;;5134082;28;20446;-82
2021/04/07 08:36:29;;;;;;;2.53;1.30;;;23.40;53.00;;;;;;5134442;28;20441;-82
2021/04/07 08:39:05;;;;;;;1.47;1.37;;;23.50;53.10;;;;;;5137539;27;20900;-82
2021/04/07 08:41:33;;;;;;;1.70;1.60;;;23.50;53.10;;;;;;5138434;27;20438;-82
2021/04/07 08:44:00;;;;;;;2.77;1.60;;;23.50;53.10;;;;;;5139420;27;20482;-83
2021/04/07 08:46:27;;;;;;;1.80;1.57;;;23.60;53.20;;;;;;5139244;27;20522;-83
2021/04/07 08:48:55;;;;;;;1.83;1.40;;;23.60;53.20;;;;;;5141541;27;20504;-83
2021/04/07 08:51:24;;;;;;;1.80;1.70;;;23.60;53.20;;;;;;5142760;27;20491;-80
2021/04/07 08:53:56;;;;;;;1.50;1.40;;;23.60;53.20;;;;;;5148263;27;20762;-82
2021/04/07 08:56:25;;;;;;;1.77;1.20;;;23.60;53.20;;;;;;5138786;27;20577;-81
2021/04/07 08:58:53;;;;;;;2.70;1.43;;;23.60;52.60;;;;;;5138273;27;20785;-86
2021/04/07 09:01:20;;;;;;;2.90;1.40;;;23.60;52.00;;;;;;5137797;27;20442;-87
2021/04/07 09:03:47;;;;;;;2.53;1.77;;;23.60;52.40;;;;;;5137668;27;20538;-86
2021/04/07 09:06:14;;;;;;;2.87;1.47;;;23.60;52.60;;;;;;5137618;27;20440;-84
2021/04/07 09:08:52;;;;;;;4.17;1.50;;;23.60;52.50;;;;;;5137469;27;20484;-82
2021/04/07 09:11:29;;;;;;;1.60;1.47;;;23.80;52.70;;;;;;5137588;27;20441;-85
2021/04/07 09:14:00;;;;;;;2.90;1.60;;;23.70;52.60;;;;;;5137459;27;20930;-85
2021/04/07 09:16:31;;;;;;;3.73;1.60;;;23.60;52.50;;;;;;5137762;27;20442;-85
2021/04/07 09:19:10;;;;;;;2.03;1.83;;;23.60;52.60;;;;;;5137548;27;20524;-85
2021/04/07 09:21:38;;;;;;;2.33;1.60;;;23.60;52.50;;;;;;5137964;27;20442;-85
2021/04/07 09:24:16;;;;;;;2.77;1.53;;;23.70;52.60;;;;;;5137764;27;20441;-85
2021/04/07 09:26:45;;;;;;;2.17;1.60;;;23.70;52.60;;;;;;5137535;27;20469;-87
2021/04/07 09:29:12;;;;;;;1.80;1.50;;;23.70;52.60;;;;;;5137257;27;20492;-84
2021/04/07 09:31:39;;;;;;;3.00;1.80;;;23.70;52.50;;;;;;5137247;27;20444;-85
2021/04/07 09:34:06;;;;;;;2.63;1.87;;;23.70;52.50;;;;;;5137154;27;20443;-83
2021/04/07 09:36:34;;;;;;;2.90;1.70;;;23.70;52.50;;;;;;5137261;27;20958;-83
2021/04/07 09:39:04;;;;;;;4.50;1.70;;;23.70;52.50;;;;;;5137452;27;20526;-83
2021/04/07 09:41:34;;;;;;;2.40;1.97;;;23.70;52.50;;;;;;5137541;27;20439;-82
2021/04/07 09:44:01;;;;;;;3.00;1.53;;;23.90;52.60;;;;;;5138188;27;20483;-82
2021/04/07 09:46:27;;;;;;;2.43;2.23;;;23.70;52.50;;;;;;5137679;27;20439;-83
2021/04/07 09:48:56;;;;;;;2.10;1.63;;;23.70;52.50;;;;;;5139444;27;20487;-84
2021/04/07 09:51:25;;;;;;;2.63;1.60;;;23.70;52.50;;;;;;5137159;27;20437;-78
2021/04/07 09:53:52;;;;;;;1.87;1.63;;;23.70;52.30;;;;;;5137174;27;20446;-81
2021/04/07 09:56:19;;;;;;;2.10;1.50;;;23.70;52.10;;;;;;5136481;27;20435;-81
2021/04/07 09:58:47;;;;;;;2.10;1.60;;;23.70;52.60;;;;;;5136338;27;20441;-81
2021/04/07 10:01:15;;;;;;;1.87;1.60;;;23.70;52.70;;;;;;5136401;27;20434;-81
2021/04/07 10:03:53;;;;;;;3.73;1.60;;;23.70;52.80;;;;;;5136310;27;20464;-81
2021/04/07 10:06:23;;;;;;;2.03;1.30;;;23.70;52.80;;;;;;5136345;27;20433;-82
2021/04/07 10:09:00;;;;;;;2.60;1.63;;;23.70;52.90;;;;;;5137021;27;21245;-81
2021/04/07 10:11:28;;;;;;;5.03;2.00;;;23.80;53.00;;;;;;5137090;27;20796;-81
2021/04/07 10:13:56;;;;;;;3.57;1.90;;;23.70;53.00;;;;;;5136797;27;20436;-81
2021/04/07 10:16:23;;;;;;;1.83;1.57;;;23.70;53.00;;;;;;5137376;27;20439;-82
2021/04/07 10:18:50;;;;;;;2.67;2.40;;;23.70;53.10;;;;;;5136614;27;20529;-82
2021/04/07 10:21:18;;;;;;;2.30;2.10;;;23.80;53.00;;;;;;5136400;27;20526;-81
2021/04/07 10:23:46;;;;;;;1.87;1.73;;;23.80;52.90;;;;;;5136414;27;20430;-81
2021/04/07 10:26:13;;;;;;;5.17;2.00;;;23.80;53.00;;;;;;5136119;27;20447;-81
2021/04/07 10:28:40;;;;;;;2.53;2.03;;;23.80;53.20;;;;;;5135735;27;20482;-80
2021/04/07 10:31:11;;;;;;;1.60;1.50;;;23.80;53.20;;;;;;5136117;27;20448;-81
2021/04/07 10:33:38;;;;;;;2.00;1.90;;;24.00;53.30;;;;;;5138383;27;20816;-81
2021/04/07 10:36:05;;;;;;;5.43;1.77;;;23.80;53.20;;;;;;5150831;27;20435;-81
2021/04/07 10:38:33;;;;;;;5.03;1.73;;;23.80;53.30;;;;;;5136305;27;20436;-81
2021/04/07 10:41:01;;;;;;;3.20;1.70;;;23.80;53.30;;;;;;5135714;27;20922;-81
2021/04/07 10:43:33;;;;;;;2.07;1.70;;;23.80;53.30;;;;;;5135439;27;20994;-81
2021/04/07 10:46:01;;;;;;;1.73;1.63;;;23.80;53.30;;;;;;5135906;27;20627;-82
2021/04/07 10:48:29;;;;;;;1.60;1.50;;;23.80;53.40;;;;;;5135801;27;20486;-81
2021/04/07 10:50:57;;;;;;;2.90;2.00;;;23.80;53.40;;;;;;5136398;27;20440;-81
2021/04/07 10:53:31;;;;;;;2.60;2.10;;;23.80;53.40;;;;;;5135745;27;20805;-80
2021/04/07 10:55:59;;;;;;;2.23;2.03;;;23.80;53.40;;;;;;5135512;27;20444;-81
2021/04/07 10:58:27;;;;;;;1.80;1.70;;;23.80;54.10;;;;;;5135410;27;20589;-81
2021/04/07 11:00:53;;;;;;;2.00;1.80;;;23.80;53.50;;;;;;5134788;27;20586;-81
2021/04/07 11:03:31;;;;;;;2.13;1.80;;;23.80;53.60;;;;;;5134391;27;20468;-82
2021/04/07 11:05:57;;;;;;;3.60;1.53;;;23.80;53.50;;;;;;5135653;27;20439;-80
2021/04/07 11:08:37;;;;;;;1.90;1.67;;;23.80;53.50;;;;;;5135056;27;20476;-80
2021/04/07 11:11:05;;;;;;;2.00;1.90;;;23.80;53.50;;;;;;5135061;27;20444;-81
2021/04/07 11:13:32;;;;;;;2.03;1.63;;;23.80;53.60;;;;;;5134987;27;20439;-81
2021/04/07 11:16:08;;;;;;;1.90;1.80;;;23.90;53.60;;;;;;5134911;27;20427;-81
2021/04/07 11:18:38;;;;;;;1.90;1.70;;;23.90;53.60;;;;;;5134769;27;20431;-81
2021/04/07 11:21:05;;;;;;;2.17;1.97;;;23.90;53.70;;;;;;5134164;27;20440;-80
2021/04/07 11:23:31;;;;;;;7.53;1.33;;;23.90;53.70;;;;;;5134805;27;20519;-81
2021/04/07 11:25:58;;;;;;;1.70;1.47;;;23.90;53.70;;;;;;5134581;27;20934;-80
2021/04/07 11:28:24;;;;;;;2.10;1.63;;;23.90;53.70;;;;;;5134410;27;20483;-81
2021/04/07 11:31:02;;;;;;;5.83;2.10;;;23.90;53.70;;;;;;5134677;27;20456;-80
2021/04/07 11:33:35;;;;;;;1.70;1.60;;;23.90;52.60;;;;;;5134484;27;20463;-80
2021/04/07 11:36:09;;;;;;;2.07;1.70;;;23.90;53.20;;;;;;5134766;27;20504;-81
2021/04/07 11:38:35;;;;;;;1.97;1.60;;;23.90;53.50;;;;;;5134912;27;20763;-82
2021/04/07 11:46:33;;;;;;;1.60;1.43;;;24.00;54.30;;;;;;5134740;27;20411;-80
2021/04/07 11:49:00;;;;;;;1.50;1.40;;;24.00;53.60;;;;;;5134489;27;20484;-81
2021/04/07 11:51:27;;;;;;;1.70;1.60;;;24.00;53.40;;;;;;5134440;27;20472;-81
2021/04/07 11:53:53;;;;;;;1.90;1.80;;;24.10;53.40;;;;;;5135047;27;20444;-81
2021/04/07 11:56:19;;;;;;;1.63;1.53;;;24.10;53.50;;;;;;5134561;27;20467;-81
2021/04/07 11:58:46;;;;;;;1.80;1.70;;;24.10;53.60;;;;;;5134394;27;20440;-81
2021/04/07 12:01:13;;;;;;;1.50;1.40;;;24.10;53.60;;;;;;5134264;27;20935;-81
2021/04/07 12:03:39;;;;;;;1.60;1.50;;;24.10;53.70;;;;;;5134158;28;20459;-81
2021/04/07 12:06:06;;;;;;;2.40;1.30;;;24.10;53.70;;;;;;5134445;28;20490;-81
2021/04/07 12:08:33;;;;;;;1.43;1.33;;;24.10;53.70;;;;;;5134275;28;20569;-81
2021/04/07 12:11:00;;;;;;;1.80;1.30;;;24.10;53.60;;;;;;5134182;28;20447;-81
2021/04/07 12:13:27;;;;;;;3.90;1.40;;;24.10;53.60;;;;;;5135786;27;20530;-81
2021/04/07 12:15:54;;;;;;;1.73;1.30;;;24.10;53.60;;;;;;5138446;27;20993;-81
2021/04/07 12:18:20;;;;;;;1.77;1.40;;;24.10;53.50;;;;;;5138487;27;20442;-82
2021/04/07 12:20:46;;;;;;;1.63;1.40;;;24.20;53.50;;;;;;5138427;27;20512;-82
2021/04/07 12:23:13;;;;;;;2.60;1.43;;;24.20;53.50;;;;;;5138239;27;20435;-81
2021/04/07 12:25:42;;;;;;;1.47;1.37;;;24.20;53.40;;;;;;5138253;27;20581;-82
2021/04/07 12:28:09;;;;;;;1.60;1.50;;;24.20;53.50;;;;;;5139495;27;20435;-82
2021/04/07 12:30:47;;;;;;;1.70;1.57;;;24.20;53.50;;;;;;5150952;27;20428;-82
2021/04/07 12:33:14;;;;;;;1.47;1.37;;;24.20;53.60;;;;;;5158804;27;20452;-82
2021/04/07 12:35:40;;;;;;;2.23;2.00;;;24.20;53.50;;;;;;5159030;27;20439;-82
2021/04/07 12:38:06;;;;;;;4.77;1.50;;;24.30;53.60;;;;;;5159083;27;20435;-82
2021/04/07 12:40:33;;;;;;;3.60;1.93;;;24.20;53.10;;;;;;5158881;27;20485;-81
2021/04/07 12:43:00;;;;;;;11.80;2.40;;;24.20;53.00;;;;;;5158729;27;20558;-87
2021/04/07 12:45:26;;;;;;;9.50;2.23;;;24.10;53.00;;;;;;5158957;27;20451;-82
2021/04/07 12:47:52;;;;;;;4.90;1.70;;;24.10;53.00;;;;;;5158984;27;20435;-81
2021/04/07 12:50:18;;;;;;;5.17;1.80;;;23.90;53.20;;;;;;5158817;27;20839;-82
2021/04/07 12:52:45;;;;;;;7.70;1.90;;;23.90;54.00;;;;;;5158733;27;20441;-82
2021/04/07 12:55:12;;;;;;;5.93;1.60;;;23.90;53.70;;;;;;5158653;27;20457;-81